createdAt,value
2023-03-02T00:00:43.925Z,0.00
2023-03-02T00:01:43.948Z,0.00
2023-03-02T00:02:43.908Z,0.00
2023-03-02T00:03:43.890Z,0.00
2023-03-02T00:04:43.868Z,0.00
2023-03-02T00:05:43.846Z,0.00
2023-03-02T00:06:43.864Z,0.00
2023-03-02T00:07:43.806Z,0.00
2023-03-02T00:08:43.808Z,0.00
2023-03-02T00:09:43.787Z,0.00
2023-03-02T00:10:43.806Z,0.00
2023-03-02T00:11:43.773Z,0.00
2023-03-02T00:12:43.766Z,0.00
2023-03-02T00:13:43.747Z,0.00
2023-03-02T00:14:43.741Z,0.00
2023-03-02T00:15:43.817Z,0.00
2023-03-02T00:16:43.740Z,0.00
2023-03-02T00:17:43.756Z,0.00
2023-03-02T00:18:43.692Z,0.00
2023-03-02T00:19:43.694Z,0.00
2023-03-02T00:20:43.681Z,0.00
2023-03-02T00:21:43.689Z,0.00
2023-03-02T00:22:43.688Z,0.00
2023-03-02T00:23:43.650Z,0.00
2023-03-02T00:24:43.629Z,0.00
2023-03-02T00:25:43.852Z,0.00
2023-03-02T00:26:43.620Z,0.00
2023-03-02T00:27:43.603Z,0.00
2023-03-02T00:28:43.623Z,0.00
2023-03-02T00:29:43.578Z,0.00
2023-03-02T00:30:43.599Z,0.00
2023-03-02T00:31:43.635Z,0.00
2023-03-02T00:32:43.570Z,0.00
2023-03-02T00:33:43.543Z,0.00
2023-03-02T00:34:43.533Z,0.00
2023-03-02T00:35:43.595Z,0.00
2023-03-02T00:36:43.845Z,0.00
2023-03-02T00:37:43.510Z,0.00
2023-03-02T00:38:43.517Z,0.00
2023-03-02T00:39:43.732Z,0.00
2023-03-02T00:40:43.467Z,0.00
2023-03-02T00:41:43.501Z,0.00
2023-03-02T00:42:43.459Z,0.00
2023-03-02T00:43:43.808Z,0.00
2023-03-02T00:44:43.437Z,0.00
2023-03-02T00:45:43.431Z,0.00
2023-03-02T00:46:43.458Z,0.00
2023-03-02T00:47:43.394Z,0.00
2023-03-02T00:48:43.409Z,0.00
2023-03-02T00:49:43.410Z,0.00
2023-03-02T00:50:43.378Z,0.00
2023-03-02T00:51:43.360Z,0.00
2023-03-02T00:52:43.378Z,0.00
2023-03-02T00:53:43.351Z,0.00
2023-03-02T00:54:43.544Z,0.00
2023-03-02T00:55:43.418Z,0.00
2023-03-02T00:56:43.344Z,0.00
2023-03-02T00:57:43.275Z,0.00
2023-03-02T00:58:43.337Z,0.00
2023-03-02T00:59:43.257Z,0.00
2023-03-02T01:00:43.286Z,0.00
2023-03-02T01:01:43.235Z,0.00
2023-03-02T01:02:43.401Z,0.00
2023-03-02T01:03:43.211Z,0.00
2023-03-02T01:04:43.237Z,0.00
2023-03-02T01:05:43.225Z,0.00
2023-03-02T01:06:43.325Z,0.00
2023-03-02T01:07:43.179Z,0.00
2023-03-02T01:08:43.184Z,0.00
2023-03-02T01:09:43.174Z,0.00
2023-03-02T01:10:43.182Z,0.00
2023-03-02T01:11:43.144Z,0.00
2023-03-02T01:12:43.153Z,0.00
2023-03-02T01:13:43.139Z,0.00
2023-03-02T01:14:43.107Z,0.00
2023-03-02T01:15:43.118Z,0.00
2023-03-02T01:16:43.128Z,0.00
2023-03-02T01:17:43.112Z,0.00
2023-03-02T01:18:43.100Z,0.00
2023-03-02T01:19:43.054Z,0.00
2023-03-02T01:20:43.066Z,0.00
2023-03-02T01:21:43.065Z,0.00
2023-03-02T01:22:43.043Z,0.00
2023-03-02T01:23:43.012Z,0.00
2023-03-02T01:24:43.015Z,0.00
2023-03-02T01:25:42.993Z,0.00
2023-03-02T01:26:43.331Z,0.00
2023-03-02T01:27:42.968Z,0.00
2023-03-02T01:28:42.963Z,0.00
2023-03-02T01:29:42.952Z,0.00
2023-03-02T01:30:42.981Z,0.00
2023-03-02T01:31:43.075Z,0.00
2023-03-02T01:32:42.914Z,0.00
2023-03-02T01:33:42.909Z,0.00
2023-03-02T01:34:42.905Z,0.00
2023-03-02T01:35:43.017Z,0.00
2023-03-02T01:36:42.904Z,0.00
2023-03-02T01:37:42.867Z,0.00
2023-03-02T01:38:42.929Z,0.00
2023-03-02T01:39:42.868Z,0.00
2023-03-02T01:40:42.942Z,0.00
2023-03-02T01:41:42.826Z,0.00
2023-03-02T01:42:42.830Z,0.00
2023-03-02T01:43:42.816Z,0.00
2023-03-02T01:44:42.850Z,0.00
2023-03-02T01:45:42.835Z,0.00
2023-03-02T01:46:42.799Z,0.00
2023-03-02T01:47:42.755Z,0.00
2023-03-02T01:48:42.742Z,0.00
2023-03-02T01:49:42.739Z,0.00
2023-03-02T01:50:42.755Z,0.00
2023-03-02T01:51:42.737Z,0.00
2023-03-02T01:52:42.862Z,0.00
2023-03-02T01:53:42.700Z,0.00
2023-03-02T01:54:42.688Z,0.00
2023-03-02T01:55:42.702Z,0.00
2023-03-02T01:56:42.666Z,0.00
2023-03-02T01:57:42.658Z,0.00
2023-03-02T01:58:42.677Z,0.00
2023-03-02T01:59:42.640Z,0.00
2023-03-02T02:00:42.677Z,0.00
2023-03-02T02:01:42.615Z,0.00
2023-03-02T02:02:42.618Z,0.00
2023-03-02T02:03:42.636Z,0.00
2023-03-02T02:04:42.598Z,0.00
2023-03-02T02:05:42.587Z,0.00
2023-03-02T02:06:42.564Z,0.00
2023-03-02T02:07:42.552Z,0.00
2023-03-02T02:08:42.573Z,0.00
2023-03-02T02:09:42.530Z,0.00
2023-03-02T02:10:42.591Z,0.00
2023-03-02T02:11:42.508Z,0.00
2023-03-02T02:12:42.553Z,0.00
2023-03-02T02:13:42.506Z,0.00
2023-03-02T02:14:42.489Z,0.00
2023-03-02T02:15:42.500Z,0.00
2023-03-02T02:16:42.497Z,0.00
2023-03-02T02:17:42.443Z,0.00
2023-03-02T02:18:42.432Z,0.00
2023-03-02T02:19:42.453Z,0.00
2023-03-02T02:20:42.465Z,0.00
2023-03-02T02:21:42.410Z,0.00
2023-03-02T02:22:42.518Z,0.00
2023-03-02T02:23:42.385Z,0.00
2023-03-02T02:24:42.397Z,0.00
2023-03-02T02:25:42.746Z,0.00
2023-03-02T02:26:42.345Z,0.00
2023-03-02T02:27:42.341Z,0.00
2023-03-02T02:28:42.327Z,0.00
2023-03-02T02:29:42.314Z,0.00
2023-03-02T02:30:42.337Z,0.00
2023-03-02T02:31:42.392Z,0.00
2023-03-02T02:32:42.360Z,0.00
2023-03-02T02:33:42.275Z,0.00
2023-03-02T02:34:42.285Z,0.00
2023-03-02T02:35:42.414Z,0.00
2023-03-02T02:36:42.242Z,0.00
2023-03-02T02:37:42.236Z,0.00
2023-03-02T02:38:42.303Z,0.00
2023-03-02T02:39:42.403Z,0.00
2023-03-02T02:40:42.240Z,0.00
2023-03-02T02:41:42.197Z,0.00
2023-03-02T02:42:42.197Z,0.00
2023-03-02T02:43:42.188Z,0.00
2023-03-02T02:44:42.254Z,0.00
2023-03-02T02:45:42.348Z,0.00
2023-03-02T02:46:42.154Z,0.00
2023-03-02T02:47:42.163Z,0.00
2023-03-02T02:48:42.119Z,0.00
2023-03-02T02:49:42.218Z,0.00
2023-03-02T02:50:42.095Z,0.00
2023-03-02T02:51:42.084Z,0.00
2023-03-02T02:52:42.078Z,0.00
2023-03-02T02:53:42.080Z,0.00
2023-03-02T02:54:42.083Z,0.00
2023-03-02T02:55:42.059Z,0.00
2023-03-02T02:56:42.046Z,0.00
2023-03-02T02:57:42.036Z,0.00
2023-03-02T02:58:42.009Z,0.00
2023-03-02T02:59:41.999Z,0.00
2023-03-02T03:00:42.019Z,0.00
2023-03-02T03:01:42.010Z,0.00
2023-03-02T03:02:41.981Z,0.00
2023-03-02T03:03:41.983Z,0.00
2023-03-02T03:04:41.994Z,0.00
2023-03-02T03:05:41.952Z,0.00
2023-03-02T03:06:41.966Z,0.00
2023-03-02T03:07:41.926Z,0.00
2023-03-02T03:08:41.920Z,0.00
2023-03-02T03:09:41.933Z,0.00
2023-03-02T03:10:41.905Z,0.00
2023-03-02T03:11:41.880Z,0.00
2023-03-02T03:12:42.063Z,0.00
2023-03-02T03:13:41.853Z,0.00
2023-03-02T03:14:41.868Z,0.00
2023-03-02T03:15:41.872Z,0.00
2023-03-02T03:16:41.906Z,0.00
2023-03-02T03:17:41.815Z,0.00
2023-03-02T03:18:41.801Z,0.00
2023-03-02T03:19:41.804Z,0.00
2023-03-02T03:20:41.796Z,0.00
2023-03-02T03:21:41.783Z,0.00
2023-03-02T03:22:41.784Z,0.00
2023-03-02T03:23:41.755Z,0.00
2023-03-02T03:24:41.740Z,0.00
2023-03-02T03:25:41.940Z,0.00
2023-03-02T03:26:41.723Z,0.00
2023-03-02T03:27:41.726Z,0.00
2023-03-02T03:28:41.719Z,0.00
2023-03-02T03:29:41.701Z,0.00
2023-03-02T03:30:41.743Z,0.00
2023-03-02T03:31:41.689Z,0.00
2023-03-02T03:32:41.688Z,0.00
2023-03-02T03:33:41.647Z,0.00
2023-03-02T03:34:41.668Z,0.00
2023-03-02T03:35:41.700Z,0.00
2023-03-02T03:36:41.615Z,0.00
2023-03-02T03:37:41.651Z,0.00
2023-03-02T03:38:41.583Z,0.00
2023-03-02T03:39:41.576Z,0.00
2023-03-02T03:40:41.837Z,0.00
2023-03-02T03:41:41.570Z,0.00
2023-03-02T03:42:41.551Z,0.00
2023-03-02T03:43:41.605Z,0.00
2023-03-02T03:44:41.563Z,0.00
2023-03-02T03:45:41.537Z,0.00
2023-03-02T03:46:41.494Z,0.00
2023-03-02T03:47:41.492Z,0.00
2023-03-02T03:48:41.479Z,0.00
2023-03-02T03:49:41.489Z,0.00
2023-03-02T03:50:41.480Z,0.00
2023-03-02T03:51:41.483Z,0.00
2023-03-02T03:52:41.433Z,0.00
2023-03-02T03:53:41.426Z,0.00
2023-03-02T03:54:41.426Z,0.00
2023-03-02T03:55:41.428Z,0.00
2023-03-02T03:56:41.401Z,0.00
2023-03-02T03:57:41.395Z,0.00
2023-03-02T03:58:41.489Z,0.00
2023-03-02T03:59:41.367Z,0.00
2023-03-02T04:00:41.418Z,0.00
2023-03-02T04:01:41.383Z,0.00
2023-03-02T04:02:41.424Z,0.00
2023-03-02T04:03:41.336Z,0.00
2023-03-02T04:04:41.337Z,0.00
2023-03-02T04:05:41.302Z,0.00
2023-03-02T04:06:41.295Z,0.00
2023-03-02T04:07:41.287Z,0.00
2023-03-02T04:08:41.263Z,0.00
2023-03-02T04:09:41.282Z,0.00
2023-03-02T04:10:41.270Z,0.00
2023-03-02T04:11:41.259Z,0.00
2023-03-02T04:12:41.227Z,0.00
2023-03-02T04:13:41.211Z,0.00
2023-03-02T04:14:41.236Z,0.00
2023-03-02T04:15:41.245Z,0.00
2023-03-02T04:16:41.203Z,0.00
2023-03-02T04:17:41.197Z,0.00
2023-03-02T04:18:41.165Z,0.00
2023-03-02T04:19:41.176Z,0.00
2023-03-02T04:20:41.166Z,0.00
2023-03-02T04:21:41.168Z,0.00
2023-03-02T04:22:41.117Z,0.00
2023-03-02T04:23:41.117Z,0.00
2023-03-02T04:24:41.104Z,0.00
2023-03-02T04:25:41.123Z,0.00
2023-03-02T04:26:41.079Z,0.00
2023-03-02T04:27:41.078Z,0.00
2023-03-02T04:28:41.071Z,0.00
2023-03-02T04:29:41.065Z,0.00
2023-03-02T04:30:41.112Z,0.00
2023-03-02T04:31:41.042Z,0.00
2023-03-02T04:32:41.103Z,0.00
2023-03-02T04:33:41.021Z,0.00
2023-03-02T04:34:41.008Z,0.00
2023-03-02T04:35:41.123Z,0.00
2023-03-02T04:36:41.003Z,0.00
2023-03-02T04:37:40.999Z,0.00
2023-03-02T04:38:40.993Z,0.00
2023-03-02T04:39:40.962Z,0.00
2023-03-02T04:40:40.990Z,0.00
2023-03-02T04:41:40.946Z,0.00
2023-03-02T04:42:40.956Z,0.00
2023-03-02T04:43:40.920Z,0.00
2023-03-02T04:44:40.921Z,0.00
2023-03-02T04:45:40.923Z,0.00
2023-03-02T04:46:42.879Z,0.00
2023-03-02T04:47:40.881Z,0.00
2023-03-02T04:48:40.898Z,0.00
2023-03-02T04:49:40.861Z,0.00
2023-03-02T04:50:40.877Z,0.00
2023-03-02T04:51:40.849Z,0.00
2023-03-02T04:52:40.855Z,0.00
2023-03-02T04:53:40.838Z,0.00
2023-03-02T04:54:40.810Z,0.00
2023-03-02T04:55:40.823Z,0.00
2023-03-02T04:56:40.801Z,0.00
2023-03-02T04:57:40.788Z,0.00
2023-03-02T04:58:40.778Z,0.00
2023-03-02T04:59:40.774Z,0.00
2023-03-02T05:00:40.759Z,0.00
2023-03-02T05:01:40.748Z,0.00
2023-03-02T05:02:40.856Z,0.00
2023-03-02T05:03:40.708Z,0.00
2023-03-02T05:04:40.783Z,0.00
2023-03-02T05:05:40.704Z,0.00
2023-03-02T05:06:40.675Z,0.00
2023-03-02T05:07:40.680Z,0.00
2023-03-02T05:08:40.671Z,0.00
2023-03-02T05:09:40.685Z,0.00
2023-03-02T05:10:40.651Z,0.00
2023-03-02T05:11:40.656Z,0.00
2023-03-02T05:12:40.628Z,0.00
2023-03-02T05:13:40.621Z,0.00
2023-03-02T05:14:40.616Z,0.00
2023-03-02T05:15:40.609Z,0.00
2023-03-02T05:16:40.640Z,0.00
2023-03-02T05:17:40.592Z,0.00
2023-03-02T05:18:40.552Z,0.00
2023-03-02T05:19:40.553Z,0.00
2023-03-02T05:20:40.975Z,0.00
2023-03-02T05:21:40.527Z,0.00
2023-03-02T05:22:40.506Z,0.00
2023-03-02T05:23:40.520Z,0.00
2023-03-02T05:24:40.497Z,0.00
2023-03-02T05:25:40.523Z,0.00
2023-03-02T05:26:40.504Z,0.00
2023-03-02T05:27:40.471Z,0.00
2023-03-02T05:28:40.469Z,0.00
2023-03-02T05:29:40.442Z,0.00
2023-03-02T05:30:40.463Z,0.00
2023-03-02T05:31:40.458Z,0.00
2023-03-02T05:32:40.502Z,0.00
2023-03-02T05:33:40.400Z,0.00
2023-03-02T05:34:40.388Z,0.00
2023-03-02T05:35:40.455Z,0.00
2023-03-02T05:36:40.455Z,0.00
2023-03-02T05:37:40.381Z,0.00
2023-03-02T05:38:40.344Z,0.00
2023-03-02T05:39:40.348Z,0.00
2023-03-02T05:40:40.342Z,0.00
2023-03-02T05:41:40.359Z,0.00
2023-03-02T05:42:40.301Z,0.00
2023-03-02T05:43:40.301Z,0.00
2023-03-02T05:44:40.283Z,0.00
2023-03-02T05:45:40.295Z,0.00
2023-03-02T05:46:40.358Z,0.00
2023-03-02T05:47:40.253Z,0.00
2023-03-02T05:48:40.252Z,0.00
2023-03-02T05:49:40.230Z,0.00
2023-03-02T05:50:40.251Z,0.00
2023-03-02T05:51:40.217Z,0.00
2023-03-02T05:52:40.220Z,0.00
2023-03-02T05:53:40.210Z,0.00
2023-03-02T05:54:40.187Z,0.00
2023-03-02T05:55:40.189Z,0.00
2023-03-02T05:56:40.180Z,0.00
2023-03-02T05:57:40.147Z,0.00
2023-03-02T05:58:40.147Z,0.00
2023-03-02T05:59:40.125Z,0.00
2023-03-02T06:00:40.142Z,0.00
2023-03-02T06:01:40.145Z,0.00
2023-03-02T06:02:40.149Z,5.62
2023-03-02T06:03:40.119Z,5.62
2023-03-02T06:04:40.072Z,5.62
2023-03-02T06:05:40.117Z,5.62
2023-03-02T06:06:40.298Z,5.62
2023-03-02T06:07:40.080Z,5.62
2023-03-02T06:08:40.076Z,5.62
2023-03-02T06:09:40.115Z,5.62
2023-03-02T06:10:40.054Z,5.62
2023-03-02T06:11:40.073Z,5.62
2023-03-02T06:12:40.059Z,5.62
2023-03-02T06:13:40.005Z,5.62
2023-03-02T06:14:39.964Z,11.25
2023-03-02T06:15:40.068Z,11.25
2023-03-02T06:16:40.021Z,11.25
2023-03-02T06:17:39.971Z,11.25
2023-03-02T06:18:41.572Z,11.25
2023-03-02T06:19:39.935Z,11.25
2023-03-02T06:20:40.536Z,11.25
2023-03-02T06:21:39.947Z,16.88
2023-03-02T06:22:39.896Z,16.88
2023-03-02T06:23:39.871Z,16.88
2023-03-02T06:24:39.906Z,22.50
2023-03-02T06:25:39.865Z,22.50
2023-03-02T06:26:39.878Z,22.50
2023-03-02T06:27:39.856Z,28.12
2023-03-02T06:28:51.347Z,28.12
2023-03-02T06:29:40.811Z,28.12
2023-03-02T06:30:39.812Z,33.75
2023-03-02T06:31:39.853Z,33.75
2023-03-02T06:32:39.783Z,39.38
2023-03-02T06:33:39.768Z,39.38
2023-03-02T06:34:39.778Z,39.38
2023-03-02T06:35:39.881Z,45.00
2023-03-02T06:36:39.819Z,45.00
2023-03-02T06:37:40.305Z,45.00
2023-03-02T06:38:39.725Z,50.62
2023-03-02T06:39:39.705Z,50.62
2023-03-02T06:40:39.707Z,56.25
2023-03-02T06:41:39.716Z,61.88
2023-03-02T06:42:39.680Z,61.88
2023-03-02T06:43:39.655Z,61.88
2023-03-02T06:44:39.676Z,61.88
2023-03-02T06:45:39.699Z,61.88
2023-03-02T06:46:39.656Z,61.88
2023-03-02T06:47:39.617Z,61.88
2023-03-02T06:48:39.612Z,61.88
2023-03-02T06:49:39.622Z,67.50
2023-03-02T06:50:39.589Z,67.50
2023-03-02T06:51:39.587Z,67.50
2023-03-02T06:52:39.591Z,67.50
2023-03-02T06:53:39.602Z,67.50
2023-03-02T06:54:39.559Z,67.50
2023-03-02T06:55:39.537Z,73.12
2023-03-02T06:56:41.086Z,73.12
2023-03-02T06:57:39.550Z,78.75
2023-03-02T06:58:39.504Z,78.75
2023-03-02T06:59:39.495Z,78.75
2023-03-02T07:00:39.503Z,84.38
2023-03-02T07:01:39.486Z,84.38
2023-03-02T07:02:39.466Z,84.38
2023-03-02T07:03:39.508Z,84.38
2023-03-02T07:04:39.444Z,90.00
2023-03-02T07:05:39.470Z,90.00
2023-03-02T07:06:39.410Z,90.00
2023-03-02T07:07:39.404Z,95.62
2023-03-02T07:08:39.399Z,95.62
2023-03-02T07:09:39.388Z,101.25
2023-03-02T07:10:39.407Z,101.25
2023-03-02T07:11:39.362Z,106.88
2023-03-02T07:12:39.369Z,112.50
2023-03-02T07:13:39.359Z,112.50
2023-03-02T07:14:39.333Z,112.50
2023-03-02T07:15:39.332Z,112.50
2023-03-02T07:16:39.335Z,118.12
2023-03-02T07:17:39.307Z,123.75
2023-03-02T07:18:39.300Z,123.75
2023-03-02T07:19:40.916Z,129.38
2023-03-02T07:20:39.294Z,123.75
2023-03-02T07:21:39.288Z,123.75
2023-03-02T07:22:39.254Z,123.75
2023-03-02T07:23:39.265Z,123.75
2023-03-02T07:24:39.265Z,129.38
2023-03-02T07:25:39.250Z,129.38
2023-03-02T07:26:39.214Z,135.00
2023-03-02T07:27:39.229Z,140.62
2023-03-02T07:28:39.232Z,146.25
2023-03-02T07:29:39.198Z,151.88
2023-03-02T07:30:39.202Z,151.88
2023-03-02T07:31:39.176Z,157.50
2023-03-02T07:32:39.191Z,157.50
2023-03-02T07:33:39.165Z,157.50
2023-03-02T07:34:39.152Z,163.12
2023-03-02T07:35:39.138Z,168.75
2023-03-02T07:36:39.131Z,174.38
2023-03-02T07:37:39.109Z,174.38
2023-03-02T07:38:39.107Z,174.38
2023-03-02T07:39:39.081Z,174.38
2023-03-02T07:40:39.052Z,174.38
2023-03-02T07:41:39.046Z,180.00
2023-03-02T07:42:39.035Z,185.62
2023-03-02T07:43:39.060Z,191.25
2023-03-02T07:44:39.057Z,196.88
2023-03-02T07:45:39.004Z,196.88
2023-03-02T07:46:39.082Z,196.88
2023-03-02T07:47:39.022Z,196.88
2023-03-02T07:48:39.012Z,196.88
2023-03-02T07:49:39.005Z,191.25
2023-03-02T07:50:39.165Z,191.25
2023-03-02T07:51:38.959Z,191.25
2023-03-02T07:52:38.957Z,185.62
2023-03-02T07:53:38.982Z,185.62
2023-03-02T07:54:38.909Z,191.25
2023-03-02T07:55:38.913Z,196.88
2023-03-02T07:56:38.900Z,202.50
2023-03-02T07:57:38.880Z,202.50
2023-03-02T07:58:38.878Z,208.12
2023-03-02T07:59:38.885Z,213.75
2023-03-02T08:00:40.686Z,219.38
2023-03-02T08:01:38.832Z,225.00
2023-03-02T08:02:38.873Z,225.00
2023-03-02T08:03:38.811Z,230.62
2023-03-02T08:04:38.829Z,236.25
2023-03-02T08:05:38.802Z,236.25
2023-03-02T08:06:41.040Z,241.88
2023-03-02T08:07:38.797Z,241.88
2023-03-02T08:08:38.778Z,253.12
2023-03-02T08:09:38.780Z,253.12
2023-03-02T08:10:38.766Z,253.12
2023-03-02T08:11:38.736Z,247.50
2023-03-02T08:12:38.712Z,253.12
2023-03-02T08:13:38.718Z,253.12
2023-03-02T08:14:39.290Z,253.12
2023-03-02T08:15:38.746Z,253.12
2023-03-02T08:16:38.779Z,247.50
2023-03-02T08:17:38.669Z,253.12
2023-03-02T08:18:38.659Z,253.12
2023-03-02T08:19:38.657Z,253.12
2023-03-02T08:20:38.633Z,253.12
2023-03-02T08:21:38.660Z,258.75
2023-03-02T08:22:38.612Z,275.62
2023-03-02T08:23:38.614Z,286.88
2023-03-02T08:24:38.622Z,286.88
2023-03-02T08:25:38.598Z,281.25
2023-03-02T08:26:38.602Z,275.62
2023-03-02T08:27:38.560Z,275.62
2023-03-02T08:28:38.580Z,281.25
2023-03-02T08:29:38.550Z,286.88
2023-03-02T08:30:38.545Z,286.88
2023-03-02T08:31:38.634Z,286.88
2023-03-02T08:32:38.591Z,292.50
2023-03-02T08:33:38.516Z,292.50
2023-03-02T08:34:38.494Z,286.88
2023-03-02T08:35:38.527Z,286.88
2023-03-02T08:36:38.490Z,286.88
2023-03-02T08:37:38.457Z,292.50
2023-03-02T08:38:38.478Z,298.12
2023-03-02T08:39:38.435Z,298.12
2023-03-02T08:40:38.571Z,298.12
2023-03-02T08:41:38.408Z,298.12
2023-03-02T08:42:38.408Z,292.50
2023-03-02T08:43:38.392Z,298.12
2023-03-02T08:44:38.403Z,298.12
2023-03-02T08:45:38.496Z,303.75
2023-03-02T08:46:38.383Z,303.75
2023-03-02T08:47:38.351Z,303.75
2023-03-02T08:48:38.358Z,303.75
2023-03-02T08:49:38.324Z,309.38
2023-03-02T08:50:38.343Z,326.25
2023-03-02T08:51:38.296Z,331.88
2023-03-02T08:52:38.321Z,337.50
2023-03-02T08:53:38.299Z,343.12
2023-03-02T08:54:38.325Z,343.12
2023-03-02T08:55:38.308Z,348.75
2023-03-02T08:56:38.252Z,348.75
2023-03-02T08:57:38.229Z,354.38
2023-03-02T08:58:38.243Z,365.62
2023-03-02T08:59:38.245Z,371.25
2023-03-02T09:00:38.210Z,371.25
2023-03-02T09:01:38.536Z,376.88
2023-03-02T09:02:38.205Z,376.88
2023-03-02T09:03:38.172Z,382.50
2023-03-02T09:04:38.208Z,393.75
2023-03-02T09:05:38.221Z,399.38
2023-03-02T09:06:38.158Z,399.38
2023-03-02T09:07:38.127Z,399.38
2023-03-02T09:08:38.132Z,393.75
2023-03-02T09:09:38.117Z,382.50
2023-03-02T09:10:38.122Z,382.50
2023-03-02T09:11:38.131Z,388.12
2023-03-02T09:12:38.093Z,393.75
2023-03-02T09:13:38.075Z,393.75
2023-03-02T09:14:38.050Z,393.75
2023-03-02T09:15:38.055Z,393.75
2023-03-02T09:16:38.161Z,393.75
2023-03-02T09:17:38.047Z,388.12
2023-03-02T09:18:38.024Z,393.75
2023-03-02T09:19:38.018Z,399.38
2023-03-02T09:20:38.034Z,405.00
2023-03-02T09:21:37.985Z,410.62
2023-03-02T09:22:37.978Z,416.25
2023-03-02T09:23:37.994Z,416.25
2023-03-02T09:24:37.965Z,416.25
2023-03-02T09:25:37.970Z,416.25
2023-03-02T09:26:37.929Z,416.25
2023-03-02T09:27:37.915Z,416.25
2023-03-02T09:28:37.909Z,416.25
2023-03-02T09:29:37.903Z,416.25
2023-03-02T09:30:37.901Z,410.62
2023-03-02T09:31:38.627Z,405.00
2023-03-02T09:32:38.106Z,393.75
2023-03-02T09:33:37.891Z,393.75
2023-03-02T09:34:37.850Z,410.62
2023-03-02T09:35:37.852Z,433.12
2023-03-02T09:36:37.855Z,444.38
2023-03-02T09:37:37.856Z,444.38
2023-03-02T09:38:37.824Z,444.38
2023-03-02T09:39:37.790Z,444.38
2023-03-02T09:40:37.782Z,444.38
2023-03-02T09:41:37.772Z,438.75
2023-03-02T09:42:43.884Z,438.75
2023-03-02T09:43:38.777Z,433.12
2023-03-02T09:44:37.733Z,433.12
2023-03-02T09:45:37.768Z,433.12
2023-03-02T09:46:37.744Z,444.38
2023-03-02T09:47:37.704Z,450.00
2023-03-02T09:48:37.704Z,450.00
2023-03-02T09:49:37.682Z,450.00
2023-03-02T09:50:37.753Z,444.38
2023-03-02T09:51:37.665Z,450.00
2023-03-02T09:52:37.716Z,455.62
2023-03-02T09:53:37.636Z,455.62
2023-03-02T09:54:37.686Z,455.62
2023-03-02T09:55:37.613Z,450.00
2023-03-02T09:56:37.615Z,444.38
2023-03-02T09:57:37.611Z,444.38
2023-03-02T09:58:37.608Z,444.38
2023-03-02T09:59:37.584Z,444.38
2023-03-02T10:00:37.576Z,444.38
2023-03-02T10:01:37.546Z,444.38
2023-03-02T10:02:37.543Z,444.38
2023-03-02T10:03:37.728Z,450.00
2023-03-02T10:04:37.580Z,455.62
2023-03-02T10:05:37.520Z,455.62
2023-03-02T10:06:37.507Z,455.62
2023-03-02T10:07:37.488Z,455.62
2023-03-02T10:08:37.512Z,455.62
2023-03-02T10:09:37.476Z,461.25
2023-03-02T10:10:37.491Z,461.25
2023-03-02T10:11:37.464Z,466.88
2023-03-02T10:12:37.444Z,466.88
2023-03-02T10:13:37.428Z,461.25
2023-03-02T10:14:37.450Z,455.62
2023-03-02T10:15:37.542Z,450.00
2023-03-02T10:16:37.677Z,450.00
2023-03-02T10:17:37.372Z,455.62
2023-03-02T10:18:37.391Z,461.25
2023-03-02T10:19:37.352Z,466.88
2023-03-02T10:20:37.364Z,466.88
2023-03-02T10:21:37.353Z,472.50
2023-03-02T10:22:37.322Z,472.50
2023-03-02T10:23:37.312Z,483.75
2023-03-02T10:24:37.382Z,478.12
2023-03-02T10:25:37.301Z,478.12
2023-03-02T10:26:37.275Z,478.12
2023-03-02T10:27:37.301Z,495.00
2023-03-02T10:28:37.264Z,511.88
2023-03-02T10:29:37.256Z,517.50
2023-03-02T10:30:37.278Z,523.12
2023-03-02T10:31:37.228Z,528.75
2023-03-02T10:32:37.230Z,534.38
2023-03-02T10:33:37.249Z,540.00
2023-03-02T10:34:37.200Z,551.25
2023-03-02T10:35:37.236Z,551.25
2023-03-02T10:36:37.485Z,540.00
2023-03-02T10:37:37.204Z,573.75
2023-03-02T10:38:37.162Z,590.62
2023-03-02T10:39:37.136Z,596.25
2023-03-02T10:40:37.159Z,596.25
2023-03-02T10:41:38.604Z,590.62
2023-03-02T10:42:37.109Z,579.38
2023-03-02T10:43:37.122Z,568.12
2023-03-02T10:44:37.097Z,568.12
2023-03-02T10:45:37.089Z,573.75
2023-03-02T10:46:37.129Z,590.62
2023-03-02T10:47:37.061Z,601.88
2023-03-02T10:48:41.044Z,613.12
2023-03-02T10:49:37.044Z,618.75
2023-03-02T10:50:37.035Z,618.75
2023-03-02T10:51:37.050Z,613.12
2023-03-02T10:52:37.014Z,624.38
2023-03-02T10:53:36.989Z,630.00
2023-03-02T10:54:36.980Z,630.00
2023-03-02T10:55:37.052Z,618.75
2023-03-02T10:56:36.976Z,613.12
2023-03-02T10:57:37.027Z,618.75
2023-03-02T10:58:36.945Z,630.00
2023-03-02T10:59:36.921Z,624.38
2023-03-02T11:00:36.948Z,607.50
2023-03-02T11:01:36.984Z,607.50
2023-03-02T11:02:36.892Z,596.25
2023-03-02T11:03:36.879Z,596.25
2023-03-02T11:04:36.923Z,601.88
2023-03-02T11:05:36.902Z,596.25
2023-03-02T11:06:36.854Z,590.62
2023-03-02T11:07:36.879Z,568.12
2023-03-02T11:08:36.818Z,568.12
2023-03-02T11:09:36.822Z,585.00
2023-03-02T11:10:36.884Z,590.62
2023-03-02T11:11:37.347Z,596.25
2023-03-02T11:12:36.813Z,596.25
2023-03-02T11:13:36.825Z,596.25
2023-03-02T11:14:36.791Z,596.25
2023-03-02T11:15:36.845Z,596.25
2023-03-02T11:16:36.740Z,601.88
2023-03-02T11:17:36.741Z,607.50
2023-03-02T11:18:36.737Z,601.88
2023-03-02T11:19:36.715Z,590.62
2023-03-02T11:20:36.753Z,585.00
2023-03-02T11:21:36.710Z,573.75
2023-03-02T11:22:36.684Z,573.75
2023-03-02T11:23:36.662Z,585.00
2023-03-02T11:24:36.662Z,596.25
2023-03-02T11:25:36.664Z,596.25
2023-03-02T11:26:36.625Z,590.62
2023-03-02T11:27:36.657Z,590.62
2023-03-02T11:28:36.648Z,590.62
2023-03-02T11:29:36.662Z,590.62
2023-03-02T11:30:36.615Z,596.25
2023-03-02T11:31:36.994Z,590.62
2023-03-02T11:32:36.647Z,585.00
2023-03-02T11:33:36.584Z,590.62
2023-03-02T11:34:36.554Z,590.62
2023-03-02T11:35:36.594Z,596.25
2023-03-02T11:36:36.518Z,596.25
2023-03-02T11:37:36.504Z,596.25
2023-03-02T11:38:36.506Z,596.25
2023-03-02T11:39:41.142Z,601.88
2023-03-02T11:40:37.490Z,607.50
2023-03-02T11:41:36.470Z,607.50
2023-03-02T11:42:36.555Z,596.25
2023-03-02T11:43:36.453Z,596.25
2023-03-02T11:44:36.468Z,585.00
2023-03-02T11:45:36.447Z,585.00
2023-03-02T11:46:36.436Z,590.62
2023-03-02T11:47:36.405Z,596.25
2023-03-02T11:48:36.389Z,596.25
2023-03-02T11:49:36.383Z,596.25
2023-03-02T11:50:36.458Z,590.62
2023-03-02T11:51:37.836Z,590.62
2023-03-02T11:52:36.352Z,601.88
2023-03-02T11:53:36.426Z,607.50
2023-03-02T11:54:36.334Z,613.12
2023-03-02T11:55:36.328Z,613.12
2023-03-02T11:56:36.298Z,613.12
2023-03-02T11:57:38.585Z,613.12
2023-03-02T11:58:36.317Z,613.12
2023-03-02T11:59:36.276Z,624.38
2023-03-02T12:00:36.283Z,641.25
2023-03-02T12:01:36.784Z,652.50
2023-03-02T12:02:36.253Z,652.50
2023-03-02T12:03:36.249Z,652.50
2023-03-02T12:04:36.236Z,652.50
2023-03-02T12:05:36.369Z,663.75
2023-03-02T12:06:36.199Z,669.38
2023-03-02T12:07:36.198Z,669.38
2023-03-02T12:08:36.202Z,669.38
2023-03-02T12:09:36.230Z,680.62
2023-03-02T12:10:36.218Z,691.88
2023-03-02T12:11:36.173Z,703.12
2023-03-02T12:12:36.329Z,703.12
2023-03-02T12:13:36.184Z,697.50
2023-03-02T12:14:36.137Z,691.88
2023-03-02T12:15:36.120Z,686.25
2023-03-02T12:16:36.610Z,675.00
2023-03-02T12:17:36.082Z,675.00
2023-03-02T12:18:36.083Z,680.62
2023-03-02T12:19:36.076Z,680.62
2023-03-02T12:20:36.053Z,669.38
2023-03-02T12:21:36.037Z,663.75
2023-03-02T12:22:36.101Z,652.50
2023-03-02T12:23:36.042Z,652.50
2023-03-02T12:24:36.001Z,646.88
2023-03-02T12:25:36.026Z,641.25
2023-03-02T12:26:36.452Z,635.62
2023-03-02T12:27:36.042Z,630.00
2023-03-02T12:28:35.976Z,630.00
2023-03-02T12:29:35.948Z,635.62
2023-03-02T12:30:35.954Z,630.00
2023-03-02T12:31:35.946Z,618.75
2023-03-02T12:32:35.988Z,607.50
2023-03-02T12:33:35.904Z,596.25
2023-03-02T12:34:35.907Z,590.62
2023-03-02T12:35:35.952Z,590.62
2023-03-02T12:36:35.907Z,596.25
2023-03-02T12:37:35.882Z,590.62
2023-03-02T12:38:35.905Z,590.62
2023-03-02T12:39:35.864Z,590.62
2023-03-02T12:40:35.897Z,590.62
2023-03-02T12:41:35.843Z,590.62
2023-03-02T12:42:35.796Z,590.62
2023-03-02T12:43:35.794Z,590.62
2023-03-02T12:44:35.783Z,590.62
2023-03-02T12:45:35.806Z,596.25
2023-03-02T12:46:36.301Z,601.88
2023-03-02T12:47:35.818Z,596.25
2023-03-02T12:48:35.771Z,590.62
2023-03-02T12:49:35.757Z,590.62
2023-03-02T12:50:35.742Z,596.25
2023-03-02T12:51:35.829Z,601.88
2023-03-02T12:52:35.746Z,607.50
2023-03-02T12:53:35.713Z,607.50